sensor_id;sensor_type;location;lat;lon;timestamp;pressure;altitude;pressure_sealevel;temperature;humidity
2681;BME280;1350;42.134;24.708;2023-07-13T00:00:06;99413.53;;;26.67;100.00
2681;BME280;1350;42.134;24.708;2023-07-13T00:02:35;99410.34;;;26.26;100.00
2681;BME280;1350;42.134;24.708;2023-07-13T00:05:03;99414.97;;;26.03;100.00
2681;BME280;1350;42.134;24.708;2023-07-13T00:07:31;99412.31;;;25.87;100.00
2681;BME280;1350;42.134;24.708;2023-07-13T00:09:58;99412.06;;;25.96;100.00
2681;BME280;1350;42.134;24.708;2023-07-13T00:12:27;99421.50;;;25.86;100.00
2681;BME280;1350;42.134;24.708;2023-07-13T00:14:56;99420.75;;;26.00;100.00
2681;BME280;1350;42.134;24.708;2023-07-13T00:17:22;99411.78;;;26.14;100.00
2681;BME280;1350;42.134;24.708;2023-07-13T00:19:49;99421.47;;;26.16;100.00
2681;BME280;1350;42.134;24.708;2023-07-13T00:22:18;99413.06;;;26.26;100.00
2681;BME280;1350;42.134;24.708;2023-07-13T00:24:45;99410.16;;;26.27;100.00
2681;BME280;1350;42.134;24.708;2023-07-13T00:27:11;99408.72;;;26.17;100.00
2681;BME280;1350;42.134;24.708;2023-07-13T00:29:39;99411.28;;;26.33;100.00
2681;BME280;1350;42.134;24.708;2023-07-13T00:32:07;99408.31;;;26.42;100.00
2681;BME280;1350;42.134;24.708;2023-07-13T00:34:34;99413.31;;;26.31;100.00
2681;BME280;1350;42.134;24.708;2023-07-13T00:37:01;99396.00;;;26.32;100.00
2681;BME280;1350;42.134;24.708;2023-07-13T00:39:30;99398.66;;;26.40;100.00
2681;BME280;1350;42.134;24.708;2023-07-13T00:41:56;99399.28;;;26.42;100.00
2681;BME280;1350;42.134;24.708;2023-07-13T00:44:23;99388.41;;;26.42;100.00
2681;BME280;1350;42.134;24.708;2023-07-13T00:46:50;99390.59;;;26.09;100.00
2681;BME280;1350;42.134;24.708;2023-07-13T00:49:19;99389.75;;;26.09;100.00
2681;BME280;1350;42.134;24.708;2023-07-13T00:51:49;99389.88;;;26.15;100.00
2681;BME280;1350;42.134;24.708;2023-07-13T00:54:19;99398.16;;;26.36;100.00
2681;BME280;1350;42.134;24.708;2023-07-13T00:56:50;99402.81;;;26.28;100.00
2681;BME280;1350;42.134;24.708;2023-07-13T00:59:20;99394.94;;;26.18;100.00
2681;BME280;1350;42.134;24.708;2023-07-13T01:01:48;99392.41;;;26.17;100.00
2681;BME280;1350;42.134;24.708;2023-07-13T01:04:15;99402.81;;;26.13;100.00
2681;BME280;1350;42.134;24.708;2023-07-13T01:06:44;99393.03;;;26.04;100.00
2681;BME280;1350;42.134;24.708;2023-07-13T01:09:13;99393.25;;;25.95;100.00
2681;BME280;1350;42.134;24.708;2023-07-13T01:11:41;99382.97;;;26.05;100.00
2681;BME280;1350;42.134;24.708;2023-07-13T01:14:11;99376.06;;;25.94;100.00
2681;BME280;1350;42.134;24.708;2023-07-13T01:16:39;99390.03;;;26.14;100.00
2681;BME280;1350;42.134;24.708;2023-07-13T01:19:14;99394.28;;;26.31;100.00
2681;BME280;1350;42.134;24.708;2023-07-13T01:21:49;99387.25;;;26.22;100.00
2681;BME280;1350;42.134;24.708;2023-07-13T01:24:16;99386.84;;;26.10;100.00
2681;BME280;1350;42.134;24.708;2023-07-13T01:26:43;99385.25;;;26.16;100.00
2681;BME280;1350;42.134;24.708;2023-07-13T01:29:10;99386.22;;;26.23;100.00
2681;BME280;1350;42.134;24.708;2023-07-13T01:31:37;99387.53;;;26.27;100.00
2681;BME280;1350;42.134;24.708;2023-07-13T01:34:03;99376.84;;;26.25;100.00
2681;BME280;1350;42.134;24.708;2023-07-13T01:36:30;99386.06;;;26.24;100.00
2681;BME280;1350;42.134;24.708;2023-07-13T01:38:58;99379.50;;;26.33;100.00
2681;BME280;1350;42.134;24.708;2023-07-13T01:41:25;99387.03;;;26.46;100.00
2681;BME280;1350;42.134;24.708;2023-07-13T01:43:52;99383.44;;;26.45;100.00
2681;BME280;1350;42.134;24.708;2023-07-13T01:46:18;99392.84;;;26.43;100.00
2681;BME280;1350;42.134;24.708;2023-07-13T01:48:45;99388.66;;;26.18;100.00
2681;BME280;1350;42.134;24.708;2023-07-13T01:51:12;99389.22;;;26.13;100.00
2681;BME280;1350;42.134;24.708;2023-07-13T01:53:39;99386.13;;;26.16;100.00
2681;BME280;1350;42.134;24.708;2023-07-13T01:56:07;99390.94;;;26.29;100.00
2681;BME280;1350;42.134;24.708;2023-07-13T01:58:34;99393.72;;;26.21;100.00
2681;BME280;1350;42.134;24.708;2023-07-13T02:01:00;99398.78;;;26.24;100.00
2681;BME280;1350;42.134;24.708;2023-07-13T02:03:27;99398.41;;;26.27;100.00
2681;BME280;1350;42.134;24.708;2023-07-13T02:05:54;99409.47;;;26.25;100.00
2681;BME280;1350;42.134;24.708;2023-07-13T02:08:20;99412.44;;;26.38;100.00
2681;BME280;1350;42.134;24.708;2023-07-13T02:10:47;99412.88;;;26.27;100.00
2681;BME280;1350;42.134;24.708;2023-07-13T02:13:15;99419.22;;;26.20;100.00
2681;BME280;1350;42.134;24.708;2023-07-13T02:15:42;99417.16;;;26.22;100.00
2681;BME280;1350;42.134;24.708;2023-07-13T02:18:09;99418.88;;;26.23;100.00
2681;BME280;1350;42.134;24.708;2023-07-13T02:20:35;99416.97;;;26.23;100.00
2681;BME280;1350;42.134;24.708;2023-07-13T02:23:02;99421.94;;;26.20;100.00
2681;BME280;1350;42.134;24.708;2023-07-13T02:25:29;99424.97;;;26.02;100.00
2681;BME280;1350;42.134;24.708;2023-07-13T02:27:56;99417.88;;;25.93;100.00
2681;BME280;1350;42.134;24.708;2023-07-13T02:30:24;99421.69;;;25.84;100.00
2681;BME280;1350;42.134;24.708;2023-07-13T02:32:51;99428.38;;;25.74;100.00
2681;BME280;1350;42.134;24.708;2023-07-13T02:35:18;99432.34;;;25.63;100.00
2681;BME280;1350;42.134;24.708;2023-07-13T02:37:44;99431.09;;;25.74;100.00
2681;BME280;1350;42.134;24.708;2023-07-13T02:40:11;99427.06;;;25.62;100.00
2681;BME280;1350;42.134;24.708;2023-07-13T02:42:38;99432.59;;;25.54;100.00
2681;BME280;1350;42.134;24.708;2023-07-13T02:45:06;99425.38;;;25.38;100.00
2681;BME280;1350;42.134;24.708;2023-07-13T02:47:35;99424.22;;;25.25;100.00
2681;BME280;1350;42.134;24.708;2023-07-13T02:50:03;99422.84;;;25.21;100.00
2681;BME280;1350;42.134;24.708;2023-07-13T02:52:29;99432.38;;;25.25;100.00
2681;BME280;1350;42.134;24.708;2023-07-13T02:54:56;99434.22;;;25.24;100.00
2681;BME280;1350;42.134;24.708;2023-07-13T02:57:23;99440.34;;;25.26;100.00
2681;BME280;1350;42.134;24.708;2023-07-13T02:59:50;99436.41;;;25.37;100.00
2681;BME280;1350;42.134;24.708;2023-07-13T03:02:16;99440.13;;;25.36;100.00
2681;BME280;1350;42.134;24.708;2023-07-13T03:04:44;99438.72;;;25.48;100.00
2681;BME280;1350;42.134;24.708;2023-07-13T03:07:11;99430.22;;;25.51;100.00
2681;BME280;1350;42.134;24.708;2023-07-13T03:09:39;99428.66;;;25.56;100.00
2681;BME280;1350;42.134;24.708;2023-07-13T03:12:07;99427.88;;;25.48;100.00
2681;BME280;1350;42.134;24.708;2023-07-13T03:14:33;99445.16;;;25.47;100.00
2681;BME280;1350;42.134;24.708;2023-07-13T03:17:00;99441.84;;;25.37;100.00
2681;BME280;1350;42.134;24.708;2023-07-13T03:19:27;99447.09;;;25.38;100.00
2681;BME280;1350;42.134;24.708;2023-07-13T03:21:55;99433.59;;;25.53;100.00
2681;BME280;1350;42.134;24.708;2023-07-13T03:24:21;99433.22;;;25.56;100.00
2681;BME280;1350;42.134;24.708;2023-07-13T03:26:51;99430.50;;;25.56;100.00
2681;BME280;1350;42.134;24.708;2023-07-13T03:29:17;99418.88;;;25.47;100.00
2681;BME280;1350;42.134;24.708;2023-07-13T03:31:44;99426.84;;;25.49;100.00
2681;BME280;1350;42.134;24.708;2023-07-13T03:34:11;99419.66;;;25.56;100.00
2681;BME280;1350;42.134;24.708;2023-07-13T03:36:38;99429.44;;;25.65;100.00
2681;BME280;1350;42.134;24.708;2023-07-13T03:39:06;99424.53;;;25.60;100.00
2681;BME280;1350;42.134;24.708;2023-07-13T03:41:33;99420.47;;;25.64;100.00
2681;BME280;1350;42.134;24.708;2023-07-13T03:44:00;99425.22;;;25.85;100.00
2681;BME280;1350;42.134;24.708;2023-07-13T03:46:29;99417.31;;;25.98;100.00
2681;BME280;1350;42.134;24.708;2023-07-13T03:48:56;99418.03;;;26.00;100.00
2681;BME280;1350;42.134;24.708;2023-07-13T03:51:23;99426.25;;;25.84;100.00
2681;BME280;1350;42.134;24.708;2023-07-13T03:53:50;99427.00;;;26.00;100.00
2681;BME280;1350;42.134;24.708;2023-07-13T03:56:19;99430.16;;;26.12;100.00
2681;BME280;1350;42.134;24.708;2023-07-13T03:58:48;99429.97;;;26.13;100.00
2681;BME280;1350;42.134;24.708;2023-07-13T04:01:16;99437.44;;;26.34;100.00
2681;BME280;1350;42.134;24.708;2023-07-13T04:03:44;99433.53;;;26.36;100.00
2681;BME280;1350;42.134;24.708;2023-07-13T04:06:15;99437.28;;;26.50;100.00
2681;BME280;1350;42.134;24.708;2023-07-13T04:08:47;99438.03;;;26.44;100.00
2681;BME280;1350;42.134;24.708;2023-07-13T04:11:14;99441.81;;;26.58;100.00
2681;BME280;1350;42.134;24.708;2023-07-13T04:13:42;99436.38;;;26.58;100.00
2681;BME280;1350;42.134;24.708;2023-07-13T04:16:09;99441.63;;;26.59;98.31
2681;BME280;1350;42.134;24.708;2023-07-13T04:18:36;99439.59;;;26.76;96.98
2681;BME280;1350;42.134;24.708;2023-07-13T04:21:03;99447.81;;;26.53;96.16
2681;BME280;1350;42.134;24.708;2023-07-13T04:23:29;99440.72;;;26.67;95.93
2681;BME280;1350;42.134;24.708;2023-07-13T04:25:56;99442.66;;;26.58;95.87
2681;BME280;1350;42.134;24.708;2023-07-13T04:28:24;99452.31;;;26.46;96.69
2681;BME280;1350;42.134;24.708;2023-07-13T04:30:53;99446.69;;;26.62;97.02
2681;BME280;1350;42.134;24.708;2023-07-13T04:33:20;99460.38;;;26.77;97.36
2681;BME280;1350;42.134;24.708;2023-07-13T04:35:48;99448.34;;;26.71;98.67
2681;BME280;1350;42.134;24.708;2023-07-13T04:38:15;99452.56;;;26.88;97.85
2681;BME280;1350;42.134;24.708;2023-07-13T04:40:42;99453.44;;;27.18;97.62
2681;BME280;1350;42.134;24.708;2023-07-13T04:43:09;99455.09;;;27.48;96.01
2681;BME280;1350;42.134;24.708;2023-07-13T04:45:36;99454.25;;;27.62;95.37
2681;BME280;1350;42.134;24.708;2023-07-13T04:48:07;99459.94;;;27.81;94.88
2681;BME280;1350;42.134;24.708;2023-07-13T04:50:36;99466.66;;;28.00;93.31
2681;BME280;1350;42.134;24.708;2023-07-13T04:53:03;99462.13;;;28.07;92.53
2681;BME280;1350;42.134;24.708;2023-07-13T04:55:30;99468.66;;;28.13;92.44
2681;BME280;1350;42.134;24.708;2023-07-13T04:57:58;99462.78;;;28.30;91.20
2681;BME280;1350;42.134;24.708;2023-07-13T05:00:25;99473.88;;;28.50;89.69
2681;BME280;1350;42.134;24.708;2023-07-13T05:02:54;99467.50;;;28.43;90.22
2681;BME280;1350;42.134;24.708;2023-07-13T05:05:22;99479.34;;;28.50;89.23
2681;BME280;1350;42.134;24.708;2023-07-13T05:07:49;99475.03;;;28.41;88.74
2681;BME280;1350;42.134;24.708;2023-07-13T05:10:16;99472.97;;;28.64;87.97
2681;BME280;1350;42.134;24.708;2023-07-13T05:12:43;99467.56;;;28.98;86.17
2681;BME280;1350;42.134;24.708;2023-07-13T05:15:10;99477.00;;;29.23;84.36
2681;BME280;1350;42.134;24.708;2023-07-13T05:17:37;99477.06;;;29.36;83.42
2681;BME280;1350;42.134;24.708;2023-07-13T05:20:05;99480.63;;;29.71;81.58
2681;BME280;1350;42.134;24.708;2023-07-13T05:22:33;99483.16;;;29.72;81.01
2681;BME280;1350;42.134;24.708;2023-07-13T05:25:01;99473.56;;;30.02;81.13
2681;BME280;1350;42.134;24.708;2023-07-13T05:27:28;99481.66;;;30.36;78.12
2681;BME280;1350;42.134;24.708;2023-07-13T05:29:54;99482.94;;;30.60;76.29
2681;BME280;1350;42.134;24.708;2023-07-13T05:32:21;99477.47;;;30.73;74.65
2681;BME280;1350;42.134;24.708;2023-07-13T05:34:48;99465.47;;;30.93;72.73
2681;BME280;1350;42.134;24.708;2023-07-13T05:37:15;99472.41;;;30.96;73.08
2681;BME280;1350;42.134;24.708;2023-07-13T05:39:43;99471.97;;;31.12;72.85
2681;BME280;1350;42.134;24.708;2023-07-13T05:42:09;99481.38;;;31.49;70.58
2681;BME280;1350;42.134;24.708;2023-07-13T05:44:36;99471.41;;;31.67;67.47
2681;BME280;1350;42.134;24.708;2023-07-13T05:47:03;99465.88;;;31.74;67.52
2681;BME280;1350;42.134;24.708;2023-07-13T05:49:30;99476.00;;;32.17;65.55
2681;BME280;1350;42.134;24.708;2023-07-13T05:51:57;99467.63;;;32.68;63.26
2681;BME280;1350;42.134;24.708;2023-07-13T05:54:24;99479.34;;;33.06;62.28
2681;BME280;1350;42.134;24.708;2023-07-13T05:56:52;99477.47;;;33.25;60.48
2681;BME280;1350;42.134;24.708;2023-07-13T05:59:19;99477.94;;;33.76;59.10
2681;BME280;1350;42.134;24.708;2023-07-13T06:01:45;99472.72;;;34.04;57.12
2681;BME280;1350;42.134;24.708;2023-07-13T06:04:12;99479.63;;;33.95;57.54
2681;BME280;1350;42.134;24.708;2023-07-13T06:06:39;99474.63;;;34.03;56.46
2681;BME280;1350;42.134;24.708;2023-07-13T06:09:05;99477.91;;;34.42;55.98
2681;BME280;1350;42.134;24.708;2023-07-13T06:11:32;99482.28;;;34.61;53.07
2681;BME280;1350;42.134;24.708;2023-07-13T06:14:01;99482.31;;;34.95;52.23
2681;BME280;1350;42.134;24.708;2023-07-13T06:16:29;99486.41;;;35.16;51.20
2681;BME280;1350;42.134;24.708;2023-07-13T06:18:56;99478.75;;;35.41;51.32
2681;BME280;1350;42.134;24.708;2023-07-13T06:21:23;99472.56;;;35.73;50.46
2681;BME280;1350;42.134;24.708;2023-07-13T06:23:51;99474.81;;;35.88;49.13
2681;BME280;1350;42.134;24.708;2023-07-13T06:26:18;99473.66;;;35.84;49.63
2681;BME280;1350;42.134;24.708;2023-07-13T06:28:46;99471.91;;;35.55;48.61
2681;BME280;1350;42.134;24.708;2023-07-13T06:31:15;99476.31;;;35.33;48.83
2681;BME280;1350;42.134;24.708;2023-07-13T06:33:42;99468.22;;;35.38;49.06
2681;BME280;1350;42.134;24.708;2023-07-13T06:36:09;99474.06;;;35.07;48.59
2681;BME280;1350;42.134;24.708;2023-07-13T06:38:36;99460.88;;;35.20;48.45
2681;BME280;1350;42.134;24.708;2023-07-13T06:41:03;99466.56;;;35.65;47.76
2681;BME280;1350;42.134;24.708;2023-07-13T06:43:30;99466.41;;;35.83;46.41
2681;BME280;1350;42.134;24.708;2023-07-13T06:45:57;99457.75;;;35.91;46.62
2681;BME280;1350;42.134;24.708;2023-07-13T06:48:25;99462.59;;;36.40;46.18
2681;BME280;1350;42.134;24.708;2023-07-13T06:50:52;99454.66;;;36.60;46.24
2681;BME280;1350;42.134;24.708;2023-07-13T06:53:19;99465.28;;;37.18;44.58
2681;BME280;1350;42.134;24.708;2023-07-13T06:55:47;99454.22;;;37.35;44.26
2681;BME280;1350;42.134;24.708;2023-07-13T06:58:15;99454.06;;;37.46;44.26
2681;BME280;1350;42.134;24.708;2023-07-13T07:00:42;99453.53;;;37.28;44.14
2681;BME280;1350;42.134;24.708;2023-07-13T07:03:08;99460.94;;;37.22;44.86
2681;BME280;1350;42.134;24.708;2023-07-13T07:05:37;99464.00;;;37.42;44.59
2681;BME280;1350;42.134;24.708;2023-07-13T07:08:04;99460.50;;;37.30;44.81
2681;BME280;1350;42.134;24.708;2023-07-13T07:10:31;99464.25;;;37.41;43.65
2681;BME280;1350;42.134;24.708;2023-07-13T07:12:59;99464.69;;;37.33;44.86
2681;BME280;1350;42.134;24.708;2023-07-13T07:15:26;99464.78;;;37.38;44.86
2681;BME280;1350;42.134;24.708;2023-07-13T07:17:53;99451.31;;;35.86;46.31
2681;BME280;1350;42.134;24.708;2023-07-13T07:20:20;99449.09;;;35.99;46.71
2681;BME280;1350;42.134;24.708;2023-07-13T07:22:48;99453.50;;;36.28;46.21
2681;BME280;1350;42.134;24.708;2023-07-13T07:25:15;99449.66;;;35.61;47.73
2681;BME280;1350;42.134;24.708;2023-07-13T07:27:42;99451.72;;;36.50;46.38
2681;BME280;1350;42.134;24.708;2023-07-13T07:30:09;99456.81;;;37.24;44.69
2681;BME280;1350;42.134;24.708;2023-07-13T07:32:36;99457.47;;;37.70;44.47
2681;BME280;1350;42.134;24.708;2023-07-13T07:35:03;99447.59;;;37.79;44.56
2681;BME280;1350;42.134;24.708;2023-07-13T07:37:30;99450.03;;;37.54;44.98
2681;BME280;1350;42.134;24.708;2023-07-13T07:39:58;99454.88;;;37.85;45.85
2681;BME280;1350;42.134;24.708;2023-07-13T07:42:25;99449.75;;;37.98;45.61
2681;BME280;1350;42.134;24.708;2023-07-13T07:44:52;99445.06;;;37.99;46.09
2681;BME280;1350;42.134;24.708;2023-07-13T07:47:19;99446.03;;;37.88;44.98
2681;BME280;1350;42.134;24.708;2023-07-13T07:49:45;99449.03;;;37.60;45.48
2681;BME280;1350;42.134;24.708;2023-07-13T07:52:12;99441.63;;;36.89;45.25
2681;BME280;1350;42.134;24.708;2023-07-13T07:54:39;99435.56;;;36.75;48.16
2681;BME280;1350;42.134;24.708;2023-07-13T07:57:07;99446.38;;;36.93;45.77
2681;BME280;1350;42.134;24.708;2023-07-13T07:59:36;99449.47;;;36.97;47.68
2681;BME280;1350;42.134;24.708;2023-07-13T08:02:03;99438.41;;;36.80;48.30
2681;BME280;1350;42.134;24.708;2023-07-13T08:04:30;99439.38;;;37.07;47.68
2681;BME280;1350;42.134;24.708;2023-07-13T08:06:57;99427.34;;;37.35;44.63
2681;BME280;1350;42.134;24.708;2023-07-13T08:09:23;99428.28;;;37.62;44.36
2681;BME280;1350;42.134;24.708;2023-07-13T08:11:50;99426.47;;;37.51;43.13
2681;BME280;1350;42.134;24.708;2023-07-13T08:14:19;99424.59;;;37.57;43.58
2681;BME280;1350;42.134;24.708;2023-07-13T08:16:45;99422.03;;;37.29;44.65
2681;BME280;1350;42.134;24.708;2023-07-13T08:19:12;99420.56;;;37.43;43.14
2681;BME280;1350;42.134;24.708;2023-07-13T08:21:39;99420.53;;;37.04;44.12
2681;BME280;1350;42.134;24.708;2023-07-13T08:24:07;99413.53;;;36.80;44.68
2681;BME280;1350;42.134;24.708;2023-07-13T08:26:34;99412.56;;;37.08;43.58
2681;BME280;1350;42.134;24.708;2023-07-13T08:29:01;99419.19;;;37.07;43.30
2681;BME280;1350;42.134;24.708;2023-07-13T08:31:30;99412.69;;;37.35;43.35
2681;BME280;1350;42.134;24.708;2023-07-13T08:33:56;99417.06;;;37.52;43.16
2681;BME280;1350;42.134;24.708;2023-07-13T08:36:23;99414.88;;;37.76;42.59
2681;BME280;1350;42.134;24.708;2023-07-13T08:38:50;99411.25;;;37.70;42.63
2681;BME280;1350;42.134;24.708;2023-07-13T08:41:17;99414.34;;;38.00;42.21
2681;BME280;1350;42.134;24.708;2023-07-13T08:43:47;99395.94;;;38.47;41.70
2681;BME280;1350;42.134;24.708;2023-07-13T08:46:19;99397.47;;;38.55;41.25
2681;BME280;1350;42.134;24.708;2023-07-13T08:48:51;99389.34;;;38.85;40.93
2681;BME280;1350;42.134;24.708;2023-07-13T08:51:29;99392.69;;;38.87;39.44
2681;BME280;1350;42.134;24.708;2023-07-13T08:53:59;99383.69;;;39.07;38.96
2681;BME280;1350;42.134;24.708;2023-07-13T08:56:29;99387.56;;;39.57;38.88
2681;BME280;1350;42.134;24.708;2023-07-13T08:58:57;99390.94;;;39.74;37.44
2681;BME280;1350;42.134;24.708;2023-07-13T09:01:31;99392.25;;;39.57;37.28
2681;BME280;1350;42.134;24.708;2023-07-13T09:04:05;99391.56;;;39.86;37.35
2681;BME280;1350;42.134;24.708;2023-07-13T09:06:42;99386.38;;;40.30;36.06
2681;BME280;1350;42.134;24.708;2023-07-13T09:09:22;99380.22;;;40.13;35.28
2681;BME280;1350;42.134;24.708;2023-07-13T09:11:58;99381.88;;;39.37;36.60
2681;BME280;1350;42.134;24.708;2023-07-13T09:14:39;99368.69;;;39.64;36.43
2681;BME280;1350;42.134;24.708;2023-07-13T09:17:12;99376.91;;;40.26;35.18
2681;BME280;1350;42.134;24.708;2023-07-13T09:19:44;99377.75;;;40.82;34.83
2681;BME280;1350;42.134;24.708;2023-07-13T09:22:17;99373.53;;;40.99;33.89
2681;BME280;1350;42.134;24.708;2023-07-13T09:24:52;99365.81;;;40.76;33.89
2681;BME280;1350;42.134;24.708;2023-07-13T09:27:23;99361.59;;;40.54;34.28
2681;BME280;1350;42.134;24.708;2023-07-13T09:29:58;99363.53;;;40.58;34.06
2681;BME280;1350;42.134;24.708;2023-07-13T09:32:28;99354.88;;;41.00;34.85
2681;BME280;1350;42.134;24.708;2023-07-13T09:34:57;99352.13;;;40.80;33.96
2681;BME280;1350;42.134;24.708;2023-07-13T09:37:30;99340.19;;;40.79;33.90
2681;BME280;1350;42.134;24.708;2023-07-13T09:39:59;99332.69;;;40.14;34.43
2681;BME280;1350;42.134;24.708;2023-07-13T09:42:31;99334.88;;;39.92;34.16
2681;BME280;1350;42.134;24.708;2023-07-13T09:45:00;99331.00;;;39.88;34.04
2681;BME280;1350;42.134;24.708;2023-07-13T09:47:30;99329.22;;;39.57;34.37
2681;BME280;1350;42.134;24.708;2023-07-13T09:50:02;99323.78;;;39.97;34.15
2681;BME280;1350;42.134;24.708;2023-07-13T09:52:43;99321.03;;;40.33;33.09
2681;BME280;1350;42.134;24.708;2023-07-13T09:55:27;99308.47;;;40.15;33.79
2681;BME280;1350;42.134;24.708;2023-07-13T09:57:55;99311.47;;;39.63;34.29
2681;BME280;1350;42.134;24.708;2023-07-13T10:00:24;99306.81;;;40.14;35.40
2681;BME280;1350;42.134;24.708;2023-07-13T10:03:01;99306.75;;;39.64;33.68
2681;BME280;1350;42.134;24.708;2023-07-13T10:05:39;99295.38;;;38.99;34.76
2681;BME280;1350;42.134;24.708;2023-07-13T10:08:18;99294.69;;;38.71;35.59
2681;BME280;1350;42.134;24.708;2023-07-13T10:10:46;99284.13;;;38.73;35.18
2681;BME280;1350;42.134;24.708;2023-07-13T10:13:37;99282.19;;;38.32;34.34
2681;BME280;1350;42.134;24.708;2023-07-13T10:16:07;99271.59;;;38.66;33.91
2681;BME280;1350;42.134;24.708;2023-07-13T10:18:39;99278.22;;;39.07;33.94
2681;BME280;1350;42.134;24.708;2023-07-13T10:21:15;99278.25;;;39.12;33.33
2681;BME280;1350;42.134;24.708;2023-07-13T10:23:45;99278.00;;;39.23;33.44
2681;BME280;1350;42.134;24.708;2023-07-13T10:26:18;99281.09;;;39.32;33.96
2681;BME280;1350;42.134;24.708;2023-07-13T10:28:52;99279.69;;;39.29;34.28
2681;BME280;1350;42.134;24.708;2023-07-13T10:31:26;99276.91;;;39.29;32.71
2681;BME280;1350;42.134;24.708;2023-07-13T10:33:58;99277.19;;;39.33;33.30
2681;BME280;1350;42.134;24.708;2023-07-13T10:36:49;99272.56;;;39.63;34.15
2681;BME280;1350;42.134;24.708;2023-07-13T10:39:48;99271.50;;;39.84;32.70
2681;BME280;1350;42.134;24.708;2023-07-13T10:42:32;99267.34;;;40.32;32.84
2681;BME280;1350;42.134;24.708;2023-07-13T10:45:13;99260.63;;;40.73;32.65
2681;BME280;1350;42.134;24.708;2023-07-13T10:47:41;99260.59;;;41.42;31.15
2681;BME280;1350;42.134;24.708;2023-07-13T10:50:16;99259.09;;;42.03;31.05
2681;BME280;1350;42.134;24.708;2023-07-13T10:55:58;99250.91;;;42.45;30.22
2681;BME280;1350;42.134;24.708;2023-07-13T10:58:32;99243.78;;;43.05;29.06
2681;BME280;1350;42.134;24.708;2023-07-13T11:01:07;99241.75;;;43.90;28.27
2681;BME280;1350;42.134;24.708;2023-07-13T11:03:49;99237.53;;;44.84;27.84
2681;BME280;1350;42.134;24.708;2023-07-13T11:06:30;99243.94;;;44.70;28.47
2681;BME280;1350;42.134;24.708;2023-07-13T11:09:31;99240.63;;;44.96;28.10
2681;BME280;1350;42.134;24.708;2023-07-13T11:12:00;99228.22;;;45.51;27.75
2681;BME280;1350;42.134;24.708;2023-07-13T11:17:49;99227.84;;;45.44;27.36
2681;BME280;1350;42.134;24.708;2023-07-13T11:20:23;99226.63;;;45.09;27.17
2681;BME280;1350;42.134;24.708;2023-07-13T11:22:51;99238.84;;;45.00;27.54
2681;BME280;1350;42.134;24.708;2023-07-13T11:25:26;99224.84;;;45.00;27.28
2681;BME280;1350;42.134;24.708;2023-07-13T11:28:15;99232.13;;;44.87;26.49
2681;BME280;1350;42.134;24.708;2023-07-13T11:30:47;99227.56;;;44.91;26.77
2681;BME280;1350;42.134;24.708;2023-07-13T11:33:17;99220.03;;;45.27;26.52
2681;BME280;1350;42.134;24.708;2023-07-13T11:35:49;99221.66;;;45.55;26.15
2681;BME280;1350;42.134;24.708;2023-07-13T11:38:22;99216.16;;;45.86;25.97
2681;BME280;1350;42.134;24.708;2023-07-13T11:40:54;99213.22;;;45.91;25.50
2681;BME280;1350;42.134;24.708;2023-07-13T11:43:26;99214.81;;;46.05;25.59
2681;BME280;1350;42.134;24.708;2023-07-13T11:45:53;99214.78;;;46.28;25.83
2681;BME280;1350;42.134;24.708;2023-07-13T11:48:27;99215.94;;;46.27;25.66
2681;BME280;1350;42.134;24.708;2023-07-13T11:50:57;99211.69;;;46.07;25.34
2681;BME280;1350;42.134;24.708;2023-07-13T11:53:27;99210.56;;;45.72;24.59
2681;BME280;1350;42.134;24.708;2023-07-13T11:55:57;99210.41;;;45.20;25.11
2681;BME280;1350;42.134;24.708;2023-07-13T11:58:29;99211.19;;;45.12;25.79
2681;BME280;1350;42.134;24.708;2023-07-13T12:01:00;99196.25;;;44.76;26.22
2681;BME280;1350;42.134;24.708;2023-07-13T12:03:37;99186.69;;;44.36;25.80
2681;BME280;1350;42.134;24.708;2023-07-13T12:06:21;99182.13;;;43.94;26.90
2681;BME280;1350;42.134;24.708;2023-07-13T12:08:50;99174.25;;;43.46;26.12
2681;BME280;1350;42.134;24.708;2023-07-13T12:11:18;99170.38;;;43.60;27.24
2681;BME280;1350;42.134;24.708;2023-07-13T12:13:47;99172.63;;;43.58;27.16
2681;BME280;1350;42.134;24.708;2023-07-13T12:16:23;99159.34;;;42.94;27.19
2681;BME280;1350;42.134;24.708;2023-07-13T12:18:52;99160.16;;;42.95;27.66
2681;BME280;1350;42.134;24.708;2023-07-13T12:21:23;99156.38;;;43.79;27.22
2681;BME280;1350;42.134;24.708;2023-07-13T12:23:52;99150.44;;;43.99;26.41
2681;BME280;1350;42.134;24.708;2023-07-13T12:26:19;99154.19;;;43.76;26.81
2681;BME280;1350;42.134;24.708;2023-07-13T12:28:51;99147.97;;;44.24;26.92
2681;BME280;1350;42.134;24.708;2023-07-13T12:31:29;99138.16;;;44.54;26.33
2681;BME280;1350;42.134;24.708;2023-07-13T12:33:59;99137.44;;;44.48;26.87
2681;BME280;1350;42.134;24.708;2023-07-13T12:36:30;99148.88;;;44.65;26.60
2681;BME280;1350;42.134;24.708;2023-07-13T12:39:01;99141.19;;;44.44;26.38
2681;BME280;1350;42.134;24.708;2023-07-13T12:41:30;99137.06;;;44.68;26.50
2681;BME280;1350;42.134;24.708;2023-07-13T12:43:59;99136.53;;;44.53;26.06
2681;BME280;1350;42.134;24.708;2023-07-13T12:46:27;99124.91;;;44.32;25.90
2681;BME280;1350;42.134;24.708;2023-07-13T12:48:56;99122.72;;;44.43;25.91
2681;BME280;1350;42.134;24.708;2023-07-13T12:51:25;99134.91;;;45.01;25.90
2681;BME280;1350;42.134;24.708;2023-07-13T12:53:57;99128.56;;;45.09;26.59
2681;BME280;1350;42.134;24.708;2023-07-13T12:56:26;99117.78;;;45.03;26.72
2681;BME280;1350;42.134;24.708;2023-07-13T12:58:59;99120.41;;;45.35;25.94
2681;BME280;1350;42.134;24.708;2023-07-13T13:01:28;99117.34;;;45.67;25.65
2681;BME280;1350;42.134;24.708;2023-07-13T13:04:01;99119.47;;;45.83;25.18
2681;BME280;1350;42.134;24.708;2023-07-13T13:06:32;99118.63;;;45.61;25.41
2681;BME280;1350;42.134;24.708;2023-07-13T13:09:01;99111.75;;;45.67;25.57
2681;BME280;1350;42.134;24.708;2023-07-13T13:11:30;99108.13;;;45.44;25.92
2681;BME280;1350;42.134;24.708;2023-07-13T13:13:58;99109.63;;;45.72;25.50
2681;BME280;1350;42.134;24.708;2023-07-13T13:16:30;99109.31;;;45.74;24.93
2681;BME280;1350;42.134;24.708;2023-07-13T13:19:01;99116.00;;;45.86;24.99
2681;BME280;1350;42.134;24.708;2023-07-13T13:21:32;99113.56;;;45.93;24.59
2681;BME280;1350;42.134;24.708;2023-07-13T13:23:59;99102.09;;;45.37;24.27